createdAt,value
2022-07-29T00:00:04.705Z,46.16
2022-07-29T00:01:04.711Z,46.13
2022-07-29T00:02:04.855Z,46.19
2022-07-29T00:03:04.747Z,46.28
2022-07-29T00:04:04.735Z,46.28
2022-07-29T00:05:04.670Z,46.19
2022-07-29T00:06:04.645Z,46.18
2022-07-29T00:07:04.646Z,46.26
2022-07-29T00:08:08.202Z,46.29
2022-07-29T00:09:05.619Z,46.25
2022-07-29T00:10:04.609Z,46.26
2022-07-29T00:11:04.611Z,46.24
2022-07-29T00:12:04.586Z,46.30
2022-07-29T00:13:04.567Z,46.33
2022-07-29T00:14:04.782Z,46.29
2022-07-29T00:15:04.556Z,46.34
2022-07-29T00:16:05.139Z,46.34
2022-07-29T00:17:04.531Z,46.39
2022-07-29T00:18:04.525Z,46.39
2022-07-29T00:19:04.521Z,46.41
2022-07-29T00:20:04.664Z,46.38
2022-07-29T00:21:04.488Z,46.43
2022-07-29T00:22:04.475Z,46.47
2022-07-29T00:23:04.464Z,46.43
2022-07-29T00:24:04.446Z,46.41
2022-07-29T00:25:04.448Z,46.51
2022-07-29T00:26:04.928Z,46.58
2022-07-29T00:27:04.417Z,46.61
2022-07-29T00:28:04.405Z,46.70
2022-07-29T00:29:32.938Z,46.71
2022-07-29T00:30:05.407Z,46.80
2022-07-29T00:31:04.436Z,46.79
2022-07-29T00:32:04.682Z,46.80
2022-07-29T00:33:08.954Z,46.84
2022-07-29T00:34:04.347Z,46.87
2022-07-29T00:35:04.332Z,46.88
2022-07-29T00:36:04.330Z,46.92
2022-07-29T00:37:04.315Z,47.06
2022-07-29T00:38:04.509Z,47.04
2022-07-29T00:39:04.297Z,47.15
2022-07-29T00:40:04.279Z,47.22
2022-07-29T00:41:04.268Z,47.23
2022-07-29T00:42:04.273Z,47.36
2022-07-29T00:43:04.256Z,47.34
2022-07-29T00:44:04.392Z,47.46
2022-07-29T00:45:04.228Z,47.44
2022-07-29T00:46:04.225Z,47.51
2022-07-29T00:47:04.292Z,47.54
2022-07-29T00:48:04.202Z,47.51
2022-07-29T00:49:04.229Z,47.51
2022-07-29T00:50:04.337Z,47.54
2022-07-29T00:51:04.162Z,47.48
2022-07-29T00:52:04.148Z,47.57
2022-07-29T00:53:04.151Z,47.56
2022-07-29T00:54:04.120Z,47.64
2022-07-29T00:55:08.489Z,47.59
2022-07-29T00:56:04.323Z,47.68
2022-07-29T00:57:04.101Z,47.76
2022-07-29T00:58:04.096Z,47.82
2022-07-29T00:59:04.079Z,47.96
2022-07-29T01:00:04.076Z,48.18
2022-07-29T01:01:04.154Z,48.22
2022-07-29T01:02:04.387Z,48.31
2022-07-29T01:03:04.720Z,48.47
2022-07-29T01:04:04.020Z,48.51
2022-07-29T01:05:04.025Z,48.47
2022-07-29T01:06:04.004Z,48.40
2022-07-29T01:07:03.997Z,48.49
2022-07-29T01:08:04.152Z,48.56
2022-07-29T01:09:04.002Z,48.57
2022-07-29T01:10:03.963Z,48.49
2022-07-29T01:11:03.961Z,48.58
2022-07-29T01:12:03.930Z,48.62
2022-07-29T01:13:03.940Z,48.76
2022-07-29T01:14:04.076Z,48.61
2022-07-29T01:15:03.900Z,48.50
2022-07-29T01:16:03.934Z,48.47
2022-07-29T01:17:03.892Z,48.55
2022-07-29T01:18:03.882Z,48.59
2022-07-29T01:19:03.865Z,48.57
2022-07-29T01:20:04.014Z,48.73
2022-07-29T01:21:03.834Z,48.67
2022-07-29T01:22:03.832Z,48.75
2022-07-29T01:23:03.834Z,48.77
2022-07-29T01:24:03.819Z,48.88
2022-07-29T01:25:03.797Z,48.89
2022-07-29T01:26:03.969Z,49.00
2022-07-29T01:27:03.779Z,48.96
2022-07-29T01:28:03.769Z,48.81
2022-07-29T01:29:07.414Z,48.79
2022-07-29T01:30:05.448Z,48.81
2022-07-29T01:31:03.777Z,48.92
2022-07-29T01:32:03.927Z,48.90
2022-07-29T01:33:03.746Z,48.95
2022-07-29T01:34:03.711Z,48.85
2022-07-29T01:35:03.689Z,48.88
2022-07-29T01:36:03.675Z,48.85
2022-07-29T01:37:03.675Z,48.95
2022-07-29T01:38:03.842Z,48.89
2022-07-29T01:39:03.659Z,49.01
2022-07-29T01:40:03.644Z,49.02
2022-07-29T01:41:03.635Z,48.97
2022-07-29T01:42:03.610Z,48.99
2022-07-29T01:43:03.609Z,49.09
2022-07-29T01:44:03.818Z,49.06
2022-07-29T01:45:03.606Z,49.24
2022-07-29T01:46:03.585Z,49.34
2022-07-29T01:47:03.616Z,49.35
2022-07-29T01:48:03.568Z,49.39
2022-07-29T01:49:03.594Z,49.42
2022-07-29T01:50:03.699Z,49.25
2022-07-29T01:51:03.525Z,49.34
2022-07-29T01:52:03.516Z,49.24
2022-07-29T01:53:03.505Z,49.33
2022-07-29T01:54:03.487Z,49.35
2022-07-29T01:55:03.482Z,49.47
2022-07-29T01:56:03.856Z,49.40
2022-07-29T01:57:03.476Z,49.51
2022-07-29T01:58:03.447Z,49.48
2022-07-29T01:59:03.448Z,49.51
2022-07-29T02:00:03.416Z,49.41
2022-07-29T02:01:03.417Z,49.49
2022-07-29T02:02:03.790Z,49.49
2022-07-29T02:03:03.396Z,49.52
2022-07-29T02:04:03.387Z,49.51
2022-07-29T02:05:03.467Z,49.45
2022-07-29T02:06:03.356Z,49.52
2022-07-29T02:07:03.351Z,49.60
2022-07-29T02:08:03.487Z,49.63
2022-07-29T02:09:03.318Z,49.56
2022-07-29T02:10:03.319Z,49.52
2022-07-29T02:11:03.308Z,49.64
2022-07-29T02:12:03.297Z,49.65
2022-07-29T02:13:03.290Z,49.65
2022-07-29T02:14:03.425Z,49.61
2022-07-29T02:15:03.258Z,49.69
2022-07-29T02:16:03.330Z,49.72
2022-07-29T02:17:03.248Z,49.68
2022-07-29T02:18:03.229Z,49.73
2022-07-29T02:19:03.376Z,49.75
2022-07-29T02:20:03.218Z,49.82
2022-07-29T02:21:03.224Z,49.89
2022-07-29T02:22:03.210Z,49.89
2022-07-29T02:23:03.190Z,49.98
2022-07-29T02:24:03.172Z,49.96
2022-07-29T02:25:03.896Z,50.14
2022-07-29T02:26:03.142Z,50.18
2022-07-29T02:27:03.147Z,50.11
2022-07-29T02:28:03.134Z,50.15
2022-07-29T02:29:03.122Z,50.23
2022-07-29T02:30:03.096Z,50.33
2022-07-29T02:31:03.376Z,50.28
2022-07-29T02:32:03.076Z,50.34
2022-07-29T02:33:03.058Z,50.34
2022-07-29T02:34:03.057Z,50.33
2022-07-29T02:35:03.052Z,50.30
2022-07-29T02:36:03.035Z,50.29
2022-07-29T02:37:03.253Z,50.35
2022-07-29T02:38:03.020Z,50.43
2022-07-29T02:39:03.005Z,50.41
2022-07-29T02:40:03.162Z,50.39
2022-07-29T02:41:02.974Z,50.45
2022-07-29T02:42:02.969Z,50.43
2022-07-29T02:43:02.960Z,50.52
2022-07-29T02:44:02.948Z,50.57
2022-07-29T02:45:02.936Z,50.48
2022-07-29T02:46:03.179Z,50.54
2022-07-29T02:47:02.950Z,50.63
2022-07-29T02:48:02.902Z,50.64
2022-07-29T02:49:02.946Z,50.63
2022-07-29T02:50:02.879Z,50.76
2022-07-29T02:51:02.868Z,50.79
2022-07-29T02:52:03.012Z,50.79
2022-07-29T02:53:02.848Z,50.82
2022-07-29T02:54:02.855Z,50.82
2022-07-29T02:55:02.836Z,50.93
2022-07-29T02:56:02.815Z,50.93
2022-07-29T02:57:02.817Z,50.94
2022-07-29T02:58:02.998Z,50.98
2022-07-29T02:59:02.792Z,50.98
2022-07-29T03:00:02.767Z,50.98
2022-07-29T03:01:02.759Z,51.06
2022-07-29T03:02:02.858Z,51.15
2022-07-29T03:03:02.746Z,51.07
2022-07-29T03:04:02.918Z,51.11
2022-07-29T03:05:02.817Z,51.12
2022-07-29T03:06:02.705Z,51.06
2022-07-29T03:07:02.710Z,51.13
2022-07-29T03:08:02.685Z,51.17
2022-07-29T03:09:02.680Z,51.13
2022-07-29T03:10:02.837Z,51.13
2022-07-29T03:11:02.660Z,51.12
2022-07-29T03:12:02.643Z,51.11
2022-07-29T03:13:02.634Z,51.13
2022-07-29T03:14:02.623Z,51.07
2022-07-29T03:15:02.609Z,51.16
2022-07-29T03:16:02.825Z,51.13
2022-07-29T03:17:02.591Z,51.15
2022-07-29T03:18:02.569Z,51.21
2022-07-29T03:19:02.567Z,51.23
2022-07-29T03:20:02.561Z,51.29
2022-07-29T03:21:02.550Z,51.24
2022-07-29T03:22:02.730Z,51.44
2022-07-29T03:23:02.527Z,51.43
2022-07-29T03:24:06.753Z,51.54
2022-07-29T03:25:03.517Z,51.63
2022-07-29T03:26:02.491Z,51.58
2022-07-29T03:27:02.481Z,51.50
2022-07-29T03:28:02.688Z,51.43
2022-07-29T03:29:02.467Z,51.48
2022-07-29T03:30:02.450Z,51.52
2022-07-29T03:31:02.494Z,51.55
2022-07-29T03:32:03.525Z,51.60
2022-07-29T03:33:02.424Z,51.75
2022-07-29T03:34:03.105Z,51.65
2022-07-29T03:35:02.399Z,51.68
2022-07-29T03:36:02.384Z,51.71
2022-07-29T03:37:02.380Z,51.74
2022-07-29T03:38:02.361Z,51.77
2022-07-29T03:39:02.356Z,51.77
2022-07-29T03:40:02.550Z,51.84
2022-07-29T03:41:02.332Z,51.82
2022-07-29T03:42:02.320Z,51.98
2022-07-29T03:43:02.310Z,51.86
2022-07-29T03:44:02.295Z,51.95
2022-07-29T03:45:02.291Z,51.94
2022-07-29T03:46:03.036Z,51.74
2022-07-29T03:47:02.271Z,51.73
2022-07-29T03:48:02.252Z,51.82
2022-07-29T03:49:02.348Z,51.82
2022-07-29T03:50:02.232Z,51.70
2022-07-29T03:51:02.228Z,51.88
2022-07-29T03:52:02.363Z,51.97
2022-07-29T03:53:02.202Z,51.91
2022-07-29T03:54:05.002Z,51.92
2022-07-29T03:55:03.180Z,51.97
2022-07-29T03:56:02.171Z,52.10
2022-07-29T03:57:02.483Z,52.13
2022-07-29T03:58:02.149Z,52.07
2022-07-29T03:59:02.131Z,52.09
2022-07-29T04:00:02.126Z,52.21
2022-07-29T04:01:02.127Z,52.29
2022-07-29T04:02:02.180Z,52.27
2022-07-29T04:03:02.373Z,52.24
2022-07-29T04:04:02.123Z,52.22
2022-07-29T04:05:02.066Z,52.26
2022-07-29T04:06:02.066Z,52.22
2022-07-29T04:07:02.057Z,52.11
2022-07-29T04:08:02.054Z,52.10
2022-07-29T04:09:02.667Z,52.28
2022-07-29T04:10:02.028Z,52.31
2022-07-29T04:11:02.008Z,52.32
2022-07-29T04:12:04.210Z,52.45
2022-07-29T04:13:01.994Z,52.48
2022-07-29T04:14:01.978Z,52.51
2022-07-29T04:15:02.276Z,52.57
2022-07-29T04:16:01.992Z,52.75
2022-07-29T04:17:01.938Z,52.70
2022-07-29T04:18:01.931Z,52.81
2022-07-29T04:19:01.918Z,52.94
2022-07-29T04:20:02.063Z,52.98
2022-07-29T04:21:01.897Z,52.92
2022-07-29T04:22:01.890Z,52.94
2022-07-29T04:23:01.874Z,52.92
2022-07-29T04:24:01.866Z,52.85
2022-07-29T04:25:04.302Z,52.94
2022-07-29T04:26:01.855Z,52.99
2022-07-29T04:27:01.828Z,52.86
2022-07-29T04:28:01.829Z,53.13
2022-07-29T04:29:01.822Z,52.94
2022-07-29T04:30:01.800Z,52.77
2022-07-29T04:31:01.998Z,52.89
2022-07-29T04:32:01.783Z,52.84
2022-07-29T04:33:01.828Z,53.02
2022-07-29T04:34:01.754Z,52.93
2022-07-29T04:35:01.743Z,52.90
2022-07-29T04:36:01.761Z,52.91
2022-07-29T04:37:01.901Z,53.03
2022-07-29T04:38:01.714Z,53.17
2022-07-29T04:39:01.703Z,53.29
2022-07-29T04:40:01.695Z,53.27
2022-07-29T04:41:01.701Z,53.21
2022-07-29T04:42:01.690Z,53.20
2022-07-29T04:43:01.821Z,53.22
2022-07-29T04:44:01.737Z,53.19
2022-07-29T04:45:01.657Z,53.06
2022-07-29T04:46:01.658Z,53.25
2022-07-29T04:47:01.625Z,53.15
2022-07-29T04:48:01.602Z,53.04
2022-07-29T04:49:01.680Z,52.99
2022-07-29T04:50:01.704Z,53.16
2022-07-29T04:51:01.594Z,53.15
2022-07-29T04:52:01.646Z,53.17
2022-07-29T04:53:01.555Z,53.18
2022-07-29T04:54:01.554Z,53.17
2022-07-29T04:55:01.530Z,53.34
2022-07-29T04:56:01.683Z,53.31
2022-07-29T04:57:01.836Z,53.24
2022-07-29T04:58:01.540Z,53.17
2022-07-29T04:59:01.489Z,53.19
2022-07-29T05:00:01.494Z,53.16
2022-07-29T05:01:01.505Z,53.37
2022-07-29T05:02:01.540Z,53.40
2022-07-29T05:03:01.709Z,53.43
2022-07-29T05:04:01.446Z,53.46
2022-07-29T05:05:01.430Z,53.32
2022-07-29T05:06:01.423Z,53.40
2022-07-29T05:07:01.409Z,53.37
2022-07-29T05:08:01.397Z,53.40
2022-07-29T05:09:01.802Z,53.48
2022-07-29T05:10:01.376Z,53.50
2022-07-29T05:11:11.617Z,53.53
2022-07-29T05:12:02.345Z,53.59
2022-07-29T05:13:01.334Z,53.47
2022-07-29T05:14:01.337Z,53.56
2022-07-29T05:15:01.329Z,53.49
2022-07-29T05:16:01.341Z,53.63
2022-07-29T05:17:01.294Z,53.60
2022-07-29T05:18:01.287Z,53.69
2022-07-29T05:19:01.272Z,53.88
2022-07-29T05:20:01.264Z,53.88
2022-07-29T05:21:01.461Z,53.98
2022-07-29T05:22:01.254Z,53.87
2022-07-29T05:23:01.233Z,53.73
2022-07-29T05:24:01.226Z,53.58
2022-07-29T05:25:05.526Z,53.65
2022-07-29T05:26:02.536Z,53.71
2022-07-29T05:27:01.188Z,53.64
2022-07-29T05:28:01.175Z,53.68
2022-07-29T05:29:01.162Z,53.62
2022-07-29T05:30:01.156Z,53.48
2022-07-29T05:31:01.214Z,53.36
2022-07-29T05:32:01.293Z,53.35
2022-07-29T05:33:01.126Z,53.43
2022-07-29T05:34:01.108Z,53.40
2022-07-29T05:35:01.100Z,53.38
2022-07-29T05:36:01.301Z,53.43
2022-07-29T05:37:01.068Z,53.42
2022-07-29T05:38:01.227Z,53.38
2022-07-29T05:39:01.059Z,53.38
2022-07-29T05:40:01.049Z,53.34
2022-07-29T05:41:01.053Z,53.36
2022-07-29T05:42:01.037Z,53.45
2022-07-29T05:43:01.010Z,53.74
2022-07-29T05:44:01.174Z,53.59
2022-07-29T05:45:00.989Z,53.54
2022-07-29T05:46:01.055Z,53.43
2022-07-29T05:47:01.000Z,53.52
2022-07-29T05:48:00.959Z,53.59
2022-07-29T05:49:00.991Z,53.48
2022-07-29T05:50:00.969Z,53.34
2022-07-29T05:51:00.918Z,53.30
2022-07-29T05:52:01.033Z,53.41
2022-07-29T05:53:00.900Z,53.34
2022-07-29T05:54:01.889Z,53.25
2022-07-29T05:55:00.888Z,53.31
2022-07-29T05:56:01.026Z,53.20
2022-07-29T05:57:00.859Z,53.14
2022-07-29T05:58:00.858Z,53.07
2022-07-29T05:59:00.855Z,53.01
2022-07-29T06:00:00.861Z,52.96
2022-07-29T06:01:01.051Z,52.92
2022-07-29T06:02:00.849Z,52.82
2022-07-29T06:03:00.801Z,52.76
2022-07-29T06:04:00.804Z,52.92
2022-07-29T06:05:00.918Z,52.96
2022-07-29T06:06:00.772Z,53.01
2022-07-29T06:07:01.002Z,52.92
2022-07-29T06:08:00.759Z,52.99
2022-07-29T06:09:00.731Z,53.00
2022-07-29T06:10:01.726Z,52.77
2022-07-29T06:11:00.716Z,52.82
2022-07-29T06:12:00.879Z,52.67
2022-07-29T06:13:00.696Z,52.63
2022-07-29T06:14:00.679Z,52.55
2022-07-29T06:15:00.671Z,52.49
2022-07-29T06:16:00.697Z,52.43
2022-07-29T06:17:00.642Z,52.43
2022-07-29T06:18:01.645Z,52.32
2022-07-29T06:19:00.620Z,52.32
2022-07-29T06:20:00.608Z,52.24
2022-07-29T06:21:00.610Z,52.18
2022-07-29T06:22:00.592Z,52.24
2022-07-29T06:23:00.613Z,52.39
2022-07-29T06:24:00.741Z,52.41
2022-07-29T06:25:00.566Z,52.25
2022-07-29T06:26:00.551Z,52.27
2022-07-29T06:27:00.557Z,52.25
2022-07-29T06:28:00.531Z,51.88
2022-07-29T06:29:00.514Z,51.73
2022-07-29T06:30:00.777Z,51.66
2022-07-29T06:31:00.568Z,51.54
2022-07-29T06:32:00.489Z,51.54
2022-07-29T06:33:00.470Z,51.48
2022-07-29T06:34:00.469Z,51.31
2022-07-29T06:35:33.019Z,51.20
2022-07-29T06:36:01.591Z,51.24
2022-07-29T06:37:00.440Z,51.15
2022-07-29T06:38:00.422Z,51.10
2022-07-29T06:39:00.410Z,51.23
2022-07-29T06:40:00.405Z,51.17
2022-07-29T06:41:00.390Z,51.00
2022-07-29T06:42:00.531Z,50.96
2022-07-29T06:43:00.385Z,50.93
2022-07-29T06:44:00.370Z,50.80
2022-07-29T06:45:00.342Z,50.83
2022-07-29T06:46:01.352Z,50.87
2022-07-29T06:47:00.493Z,50.53
2022-07-29T06:48:00.315Z,50.53
2022-07-29T06:49:00.373Z,50.51
2022-07-29T06:50:00.292Z,50.56
2022-07-29T06:51:00.271Z,50.81
2022-07-29T06:52:00.270Z,50.36
2022-07-29T06:53:00.434Z,50.27
2022-07-29T06:54:03.289Z,50.05
2022-07-29T06:55:00.231Z,50.04
2022-07-29T06:56:00.226Z,49.46
2022-07-29T06:57:00.202Z,49.07
2022-07-29T06:58:00.206Z,49.10
2022-07-29T06:59:01.597Z,49.32
2022-07-29T07:00:00.184Z,48.99
2022-07-29T07:01:00.247Z,48.64
2022-07-29T07:02:00.210Z,48.72
2022-07-29T07:03:00.141Z,48.67
2022-07-29T07:04:00.140Z,48.51
2022-07-29T07:05:00.165Z,48.67
2022-07-29T07:06:00.127Z,48.08
2022-07-29T07:07:00.123Z,48.16
2022-07-29T07:08:00.104Z,48.37
2022-07-29T07:09:00.087Z,48.52
2022-07-29T07:10:00.145Z,48.33
2022-07-29T07:11:00.078Z,47.77
2022-07-29T07:12:00.051Z,47.46
2022-07-29T07:13:00.048Z,47.63
2022-07-29T07:14:03.568Z,47.98
2022-07-29T07:15:00.017Z,48.33
2022-07-29T07:16:00.198Z,48.46
2022-07-29T07:17:00.052Z,48.68
2022-07-29T07:17:59.999Z,47.96
2022-07-29T07:18:59.984Z,48.27
2022-07-29T07:19:59.962Z,47.20
2022-07-29T07:20:59.959Z,47.08
2022-07-29T07:22:00.288Z,47.60
2022-07-29T07:22:59.931Z,46.91
2022-07-29T07:23:59.934Z,46.56
2022-07-29T07:24:59.914Z,46.58
2022-07-29T07:25:59.912Z,46.77
2022-07-29T07:26:59.894Z,46.98
2022-07-29T07:28:00.050Z,46.73
2022-07-29T07:28:59.875Z,46.50
2022-07-29T07:29:59.864Z,46.59
2022-07-29T07:30:59.864Z,46.61
2022-07-29T07:32:01.232Z,46.74
2022-07-29T07:32:59.834Z,47.04
2022-07-29T07:33:59.974Z,47.03
2022-07-29T07:34:59.821Z,47.11
2022-07-29T07:35:59.803Z,46.42
2022-07-29T07:36:59.787Z,46.02
2022-07-29T07:37:59.782Z,45.71
2022-07-29T07:38:59.768Z,45.58
2022-07-29T07:39:59.914Z,45.74
2022-07-29T07:40:59.779Z,45.94
2022-07-29T07:41:59.737Z,46.13
2022-07-29T07:42:59.732Z,45.72
2022-07-29T07:43:59.713Z,45.67
2022-07-29T07:45:12.934Z,45.60
2022-07-29T07:46:00.739Z,45.73
2022-07-29T07:47:08.530Z,45.88
2022-07-29T07:48:00.680Z,45.78
2022-07-29T07:49:00.424Z,45.89
2022-07-29T07:49:59.656Z,46.08
2022-07-29T07:50:59.696Z,46.31
2022-07-29T07:51:59.634Z,46.05
2022-07-29T07:52:59.636Z,45.76
2022-07-29T07:53:59.678Z,45.70
2022-07-29T07:54:59.598Z,45.92
2022-07-29T07:56:10.422Z,45.85
2022-07-29T07:57:00.796Z,45.92
2022-07-29T07:57:59.559Z,45.88
2022-07-29T07:58:59.552Z,46.02
2022-07-29T07:59:59.548Z,46.06
2022-07-29T08:00:59.615Z,45.96
2022-07-29T08:01:59.648Z,45.87
2022-07-29T08:02:59.604Z,45.90
2022-07-29T08:03:59.506Z,46.08
2022-07-29T08:04:59.489Z,46.28
2022-07-29T08:05:59.488Z,47.32
2022-07-29T08:06:59.467Z,47.01
2022-07-29T08:07:59.466Z,47.02
2022-07-29T08:09:19.505Z,46.78
2022-07-29T08:10:00.438Z,46.31
2022-07-29T08:10:59.431Z,46.10
2022-07-29T08:11:59.414Z,45.92
2022-07-29T08:12:59.406Z,45.49
2022-07-29T08:13:59.407Z,45.58
2022-07-29T08:14:59.590Z,45.09
2022-07-29T08:15:59.368Z,44.85
2022-07-29T08:16:59.422Z,44.94
2022-07-29T08:17:59.519Z,45.41
2022-07-29T08:18:59.358Z,46.11
2022-07-29T08:19:59.330Z,45.54
2022-07-29T08:20:59.329Z,45.55
2022-07-29T08:21:59.315Z,45.56
2022-07-29T08:22:59.297Z,45.38
2022-07-29T08:24:02.896Z,44.76
2022-07-29T08:25:00.329Z,44.75
2022-07-29T08:25:59.280Z,44.60
2022-07-29T08:27:21.250Z,44.53
2022-07-29T08:28:00.253Z,45.18
2022-07-29T08:28:59.247Z,45.00
2022-07-29T08:29:59.269Z,44.76
2022-07-29T08:30:59.225Z,44.64
2022-07-29T08:31:59.320Z,44.54
2022-07-29T08:32:59.231Z,44.57
2022-07-29T08:33:59.206Z,44.48
2022-07-29T08:34:59.179Z,44.51
2022-07-29T08:35:59.195Z,44.41
2022-07-29T08:36:59.159Z,44.18
2022-07-29T08:37:59.158Z,44.23
2022-07-29T08:39:00.087Z,44.20
2022-07-29T08:39:59.129Z,43.95
2022-07-29T08:40:59.139Z,43.79
2022-07-29T08:41:59.289Z,43.43
2022-07-29T08:42:59.102Z,43.53
2022-07-29T08:43:59.087Z,43.31
2022-07-29T08:44:59.079Z,43.04
2022-07-29T08:45:59.207Z,42.98
2022-07-29T08:46:59.250Z,43.13
2022-07-29T08:47:59.035Z,42.82
2022-07-29T08:48:59.106Z,43.09
2022-07-29T08:49:59.038Z,43.08
2022-07-29T08:50:59.011Z,43.22
2022-07-29T08:51:59.381Z,43.27
2022-07-29T08:53:00.081Z,42.72
2022-07-29T08:53:58.984Z,42.48
2022-07-29T08:54:58.967Z,42.49
2022-07-29T08:55:58.962Z,42.71
2022-07-29T08:56:58.949Z,42.98
2022-07-29T08:57:58.940Z,42.87
2022-07-29T08:58:59.244Z,42.12
2022-07-29T09:00:00.102Z,42.08
2022-07-29T09:00:59.941Z,42.31
2022-07-29T09:01:59.279Z,42.11
2022-07-29T09:02:58.887Z,41.86
2022-07-29T09:03:58.966Z,42.00
2022-07-29T09:04:59.078Z,41.50
2022-07-29T09:05:58.860Z,41.38
2022-07-29T09:06:58.851Z,41.28
2022-07-29T09:07:58.835Z,41.19
2022-07-29T09:08:58.823Z,41.05
2022-07-29T09:09:58.805Z,41.00
2022-07-29T09:10:58.951Z,41.32
2022-07-29T09:11:58.794Z,41.77
2022-07-29T09:12:58.785Z,41.80
2022-07-29T09:13:58.765Z,41.32
2022-07-29T09:14:58.792Z,41.02
2022-07-29T09:15:59.025Z,41.15
2022-07-29T09:16:58.808Z,41.31
2022-07-29T09:17:58.725Z,41.31
2022-07-29T09:18:58.739Z,40.54
2022-07-29T09:19:58.705Z,40.52
2022-07-29T09:20:58.710Z,40.50
2022-07-29T09:21:58.898Z,40.53
2022-07-29T09:22:58.692Z,40.75
2022-07-29T09:23:58.662Z,41.02
2022-07-29T09:24:58.668Z,41.15
2022-07-29T09:25:58.646Z,41.03
2022-07-29T09:26:58.636Z,40.73
2022-07-29T09:27:58.632Z,40.41
2022-07-29T09:28:58.608Z,40.27
2022-07-29T09:29:58.603Z,40.04
2022-07-29T09:30:58.599Z,40.24
2022-07-29T09:31:58.642Z,40.47
2022-07-29T09:32:58.753Z,40.60
2022-07-29T09:33:58.581Z,40.55
2022-07-29T09:34:58.599Z,40.60
2022-07-29T09:35:58.541Z,40.73
2022-07-29T09:36:58.871Z,40.09
2022-07-29T09:37:58.526Z,39.77
2022-07-29T09:38:58.685Z,39.56
2022-07-29T09:39:58.482Z,39.48
2022-07-29T09:41:03.259Z,39.16
2022-07-29T09:41:59.493Z,38.88
2022-07-29T09:42:58.501Z,39.07
2022-07-29T09:43:58.453Z,38.93
2022-07-29T09:44:58.703Z,38.56
2022-07-29T09:45:58.433Z,38.62
2022-07-29T09:46:58.808Z,39.29
2022-07-29T09:47:58.403Z,38.35
2022-07-29T09:48:58.510Z,37.76
2022-07-29T09:49:58.389Z,37.45
2022-07-29T09:50:58.535Z,37.63
2022-07-29T09:51:58.370Z,37.80
2022-07-29T09:52:58.355Z,37.93
2022-07-29T09:53:58.365Z,37.54
2022-07-29T09:54:58.346Z,37.59
2022-07-29T09:55:58.534Z,38.13
2022-07-29T09:56:58.477Z,37.02
2022-07-29T09:57:58.315Z,37.23
2022-07-29T09:58:58.305Z,38.25
2022-07-29T09:59:58.288Z,38.54
2022-07-29T10:00:58.316Z,38.37
2022-07-29T10:01:58.843Z,38.07
2022-07-29T10:02:58.291Z,38.11
2022-07-29T10:03:58.235Z,37.48
2022-07-29T10:04:58.251Z,37.69
2022-07-29T10:05:58.236Z,37.68
2022-07-29T10:07:03.949Z,37.94
2022-07-29T10:07:59.357Z,37.52
2022-07-29T10:08:58.246Z,37.23
2022-07-29T10:09:58.176Z,36.50
2022-07-29T10:10:58.190Z,36.65
2022-07-29T10:11:58.422Z,36.89
2022-07-29T10:13:01.830Z,36.87
2022-07-29T10:14:00.094Z,36.27
2022-07-29T10:14:58.133Z,36.86
2022-07-29T10:15:58.315Z,36.80
2022-07-29T10:16:58.128Z,38.10
2022-07-29T10:17:58.087Z,38.47
2022-07-29T10:18:58.103Z,37.16
2022-07-29T10:19:58.077Z,36.86
2022-07-29T10:20:58.068Z,36.40
2022-07-29T10:21:58.375Z,36.22
2022-07-29T10:22:58.039Z,35.97
2022-07-29T10:23:59.527Z,35.73
2022-07-29T10:24:58.033Z,35.39
2022-07-29T10:25:57.997Z,35.74
2022-07-29T10:26:58.004Z,35.95
2022-07-29T10:27:58.148Z,36.48
2022-07-29T10:28:57.978Z,36.26
2022-07-29T10:29:57.949Z,36.60
2022-07-29T10:30:57.993Z,37.45
2022-07-29T10:31:58.396Z,37.81
2022-07-29T10:32:57.943Z,37.00
2022-07-29T10:33:58.093Z,37.77
2022-07-29T10:34:57.918Z,37.58
2022-07-29T10:35:57.900Z,36.23
2022-07-29T10:36:57.909Z,37.87
2022-07-29T10:37:57.898Z,37.03
2022-07-29T10:38:57.913Z,36.06
2022-07-29T10:39:57.876Z,37.34
2022-07-29T10:40:57.864Z,36.08
2022-07-29T10:41:58.207Z,35.93
2022-07-29T10:42:57.836Z,35.66
2022-07-29T10:43:57.810Z,35.12
2022-07-29T10:44:57.830Z,34.89
2022-07-29T10:45:57.811Z,34.95
2022-07-29T10:46:58.169Z,36.01
2022-07-29T10:47:57.779Z,36.43
2022-07-29T10:48:57.828Z,35.48
2022-07-29T10:49:57.752Z,36.45
2022-07-29T10:50:57.993Z,35.91
2022-07-29T10:51:58.234Z,37.19
2022-07-29T10:52:57.733Z,36.05
2022-07-29T10:53:57.713Z,37.94
2022-07-29T10:54:57.720Z,38.14
2022-07-29T10:55:57.690Z,36.55
2022-07-29T10:56:57.836Z,37.57
2022-07-29T10:57:57.668Z,36.83
2022-07-29T10:58:57.651Z,38.26
2022-07-29T10:59:57.665Z,39.00
2022-07-29T11:00:57.771Z,38.36
2022-07-29T11:02:27.820Z,38.43
2022-07-29T11:02:58.852Z,37.12
2022-07-29T11:03:57.615Z,35.31
2022-07-29T11:04:57.602Z,35.05
2022-07-29T11:05:59.907Z,34.78
2022-07-29T11:06:57.573Z,34.54
2022-07-29T11:07:57.569Z,34.25
2022-07-29T11:08:57.760Z,33.65
2022-07-29T11:09:57.562Z,33.62
2022-07-29T11:10:57.530Z,33.62
2022-07-29T11:11:57.721Z,34.09
2022-07-29T11:12:57.516Z,33.86
2022-07-29T11:13:57.487Z,33.64
2022-07-29T11:14:57.978Z,34.39
2022-07-29T11:15:57.472Z,33.45
2022-07-29T11:16:57.464Z,33.14
2022-07-29T11:17:59.191Z,33.82
2022-07-29T11:18:57.452Z,33.46
2022-07-29T11:19:57.437Z,34.55
2022-07-29T11:20:57.603Z,32.96
2022-07-29T11:21:58.499Z,34.87
2022-07-29T11:22:57.413Z,35.50
2022-07-29T11:23:57.383Z,33.37
2022-07-29T11:24:57.376Z,33.21
2022-07-29T11:25:57.375Z,34.10
2022-07-29T11:27:00.496Z,35.60
2022-07-29T11:27:57.349Z,35.59
2022-07-29T11:28:57.343Z,35.25
2022-07-29T11:29:57.318Z,35.17
2022-07-29T11:30:57.761Z,33.80
2022-07-29T11:31:57.467Z,34.27
2022-07-29T11:32:57.455Z,33.51
2022-07-29T11:33:57.990Z,35.12
2022-07-29T11:34:57.274Z,34.36
2022-07-29T11:36:00.907Z,34.86
2022-07-29T11:36:59.050Z,35.96
2022-07-29T11:37:57.848Z,34.85
2022-07-29T11:38:57.395Z,34.39
2022-07-29T11:40:01.550Z,33.65
2022-07-29T11:40:58.204Z,33.80
2022-07-29T11:42:00.538Z,33.47
2022-07-29T11:42:58.199Z,33.64
2022-07-29T11:43:57.176Z,33.56
2022-07-29T11:44:57.361Z,35.50
2022-07-29T11:45:57.155Z,34.41
2022-07-29T11:46:57.190Z,33.11
2022-07-29T11:47:59.634Z,33.09
2022-07-29T11:48:58.174Z,33.33
2022-07-29T11:49:57.295Z,33.13
2022-07-29T11:50:58.181Z,34.98
2022-07-29T11:51:57.169Z,36.50
2022-07-29T11:52:57.113Z,34.28
2022-07-29T11:54:01.069Z,34.92
2022-07-29T11:55:58.395Z,34.16
2022-07-29T11:56:57.047Z,33.90
2022-07-29T11:58:03.569Z,33.95
2022-07-29T11:58:58.021Z,34.31
2022-07-29T12:00:01.580Z,34.42
2022-07-29T12:00:58.180Z,34.21
2022-07-29T12:02:12.126Z,34.43
2022-07-29T12:02:58.026Z,34.45
2022-07-29T12:03:57.074Z,34.06
2022-07-29T12:04:56.989Z,33.67
2022-07-29T12:05:57.551Z,33.32
2022-07-29T12:07:00.545Z,34.10
2022-07-29T12:07:56.916Z,34.68
2022-07-29T12:08:56.985Z,34.20
2022-07-29T12:09:57.136Z,33.02
2022-07-29T12:10:56.908Z,35.01
2022-07-29T12:12:00.651Z,36.03
2022-07-29T12:12:57.873Z,33.85
2022-07-29T12:13:56.849Z,34.89
2022-07-29T12:14:56.903Z,34.39
2022-07-29T12:15:56.884Z,33.02
2022-07-29T12:16:56.893Z,32.78
2022-07-29T12:17:58.168Z,34.31
2022-07-29T12:18:56.813Z,33.03
2022-07-29T12:19:56.815Z,32.96
2022-07-29T12:20:56.794Z,35.11
2022-07-29T12:21:59.842Z,35.96
2022-07-29T12:22:58.102Z,36.52
2022-07-29T12:23:57.704Z,34.38
2022-07-29T12:25:02.321Z,35.36
2022-07-29T12:25:57.735Z,34.18
2022-07-29T12:26:56.733Z,35.30
2022-07-29T12:27:56.732Z,37.01
2022-07-29T12:28:56.894Z,35.22
2022-07-29T12:29:56.718Z,35.34
2022-07-29T12:30:56.702Z,34.91
2022-07-29T12:31:57.853Z,35.48
2022-07-29T12:32:56.649Z,34.66
2022-07-29T12:33:56.690Z,35.50
2022-07-29T12:34:57.046Z,34.65
2022-07-29T12:36:07.612Z,34.35
2022-07-29T12:36:57.664Z,35.19
2022-07-29T12:37:56.625Z,36.98
2022-07-29T12:38:56.584Z,36.80
2022-07-29T12:39:56.582Z,37.59
2022-07-29T12:40:56.595Z,37.69
2022-07-29T12:42:03.999Z,38.11
2022-07-29T12:42:57.547Z,37.98
2022-07-29T12:43:56.557Z,35.26
2022-07-29T12:44:56.584Z,37.77
2022-07-29T12:45:56.696Z,35.98
2022-07-29T12:46:56.583Z,35.32
2022-07-29T12:47:56.489Z,37.50
2022-07-29T12:48:56.503Z,36.36
2022-07-29T12:49:56.476Z,35.35
2022-07-29T12:50:56.472Z,37.45
2022-07-29T12:51:56.840Z,38.11
2022-07-29T12:52:56.439Z,37.85